sensor_id;sensor_type;location;lat;lon;timestamp;P1;durP1;ratioP1;P2;durP2;ratioP2
9496;SDS011;4786;51.270;4.456;2023-07-28T00:00:04;3.10;;;2.10;;
9496;SDS011;4786;51.270;4.456;2023-07-28T00:02:30;2.40;;;1.98;;
9496;SDS011;4786;51.270;4.456;2023-07-28T00:04:56;2.33;;;2.10;;
9496;SDS011;4786;51.270;4.456;2023-07-28T00:07:22;2.17;;;1.98;;
9496;SDS011;4786;51.270;4.456;2023-07-28T00:09:48;2.47;;;2.35;;
9496;SDS011;4786;51.270;4.456;2023-07-28T00:12:13;3.08;;;2.42;;
9496;SDS011;4786;51.270;4.456;2023-07-28T00:14:39;2.50;;;2.30;;
9496;SDS011;4786;51.270;4.456;2023-07-28T00:17:06;2.53;;;2.30;;
9496;SDS011;4786;51.270;4.456;2023-07-28T00:19:32;2.58;;;2.38;;
9496;SDS011;4786;51.270;4.456;2023-07-28T00:21:58;4.65;;;2.40;;
9496;SDS011;4786;51.270;4.456;2023-07-28T00:24:24;2.85;;;2.60;;
9496;SDS011;4786;51.270;4.456;2023-07-28T00:26:50;4.55;;;2.70;;
9496;SDS011;4786;51.270;4.456;2023-07-28T00:29:16;2.78;;;2.58;;
9496;SDS011;4786;51.270;4.456;2023-07-28T00:31:42;2.80;;;2.60;;
9496;SDS011;4786;51.270;4.456;2023-07-28T00:34:08;2.65;;;2.47;;
9496;SDS011;4786;51.270;4.456;2023-07-28T00:36:34;2.85;;;2.65;;
9496;SDS011;4786;51.270;4.456;2023-07-28T00:39:00;2.88;;;2.67;;
9496;SDS011;4786;51.270;4.456;2023-07-28T00:41:27;3.00;;;2.70;;
9496;SDS011;4786;51.270;4.456;2023-07-28T00:43:53;5.68;;;5.18;;
9496;SDS011;4786;51.270;4.456;2023-07-28T00:46:19;4.80;;;4.40;;
9496;SDS011;4786;51.270;4.456;2023-07-28T00:48:45;6.85;;;4.53;;
9496;SDS011;4786;51.270;4.456;2023-07-28T00:51:11;4.35;;;4.05;;
9496;SDS011;4786;51.270;4.456;2023-07-28T00:53:37;9.32;;;6.70;;
9496;SDS011;4786;51.270;4.456;2023-07-28T00:56:04;8.30;;;7.57;;
9496;SDS011;4786;51.270;4.456;2023-07-28T00:58:31;9.85;;;8.93;;
9496;SDS011;4786;51.270;4.456;2023-07-28T01:00:57;12.05;;;10.95;;
9496;SDS011;4786;51.270;4.456;2023-07-28T01:03:24;13.90;;;12.57;;
9496;SDS011;4786;51.270;4.456;2023-07-28T01:08:42;16.65;;;15.13;;
9496;SDS011;4786;51.270;4.456;2023-07-28T01:11:09;15.98;;;14.60;;
9496;SDS011;4786;51.270;4.456;2023-07-28T01:13:35;16.33;;;14.82;;
9496;SDS011;4786;51.270;4.456;2023-07-28T01:16:01;16.08;;;14.57;;
9496;SDS011;4786;51.270;4.456;2023-07-28T01:18:27;16.55;;;14.95;;
9496;SDS011;4786;51.270;4.456;2023-07-28T01:20:54;15.32;;;13.82;;
9496;SDS011;4786;51.270;4.456;2023-07-28T01:28:40;14.52;;;13.23;;
9496;SDS011;4786;51.270;4.456;2023-07-28T01:31:14;14.13;;;12.82;;
9496;SDS011;4786;51.270;4.456;2023-07-28T01:33:40;13.07;;;11.77;;
9496;SDS011;4786;51.270;4.456;2023-07-28T01:36:06;14.07;;;12.77;;
9496;SDS011;4786;51.270;4.456;2023-07-28T01:38:32;14.68;;;13.27;;
9496;SDS011;4786;51.270;4.456;2023-07-28T01:40:58;14.05;;;12.55;;
9496;SDS011;4786;51.270;4.456;2023-07-28T01:43:23;13.40;;;11.93;;
9496;SDS011;4786;51.270;4.456;2023-07-28T01:45:50;16.27;;;13.48;;
9496;SDS011;4786;51.270;4.456;2023-07-28T01:48:16;14.77;;;13.40;;
9496;SDS011;4786;51.270;4.456;2023-07-28T01:50:42;14.55;;;13.02;;
9496;SDS011;4786;51.270;4.456;2023-07-28T01:53:08;15.25;;;13.85;;
9496;SDS011;4786;51.270;4.456;2023-07-28T01:55:35;15.43;;;13.88;;
9496;SDS011;4786;51.270;4.456;2023-07-28T01:58:01;16.92;;;15.32;;
9496;SDS011;4786;51.270;4.456;2023-07-28T02:00:28;17.23;;;15.57;;
9496;SDS011;4786;51.270;4.456;2023-07-28T02:02:54;20.50;;;18.50;;
9496;SDS011;4786;51.270;4.456;2023-07-28T02:05:20;20.77;;;18.90;;
9496;SDS011;4786;51.270;4.456;2023-07-28T02:07:46;24.42;;;22.17;;
9496;SDS011;4786;51.270;4.456;2023-07-28T02:10:12;25.95;;;23.55;;
9496;SDS011;4786;51.270;4.456;2023-07-28T02:12:38;25.90;;;23.48;;
9496;SDS011;4786;51.270;4.456;2023-07-28T02:15:05;26.55;;;23.90;;
9496;SDS011;4786;51.270;4.456;2023-07-28T02:17:32;25.08;;;22.88;;
9496;SDS011;4786;51.270;4.456;2023-07-28T02:19:58;27.02;;;24.45;;
9496;SDS011;4786;51.270;4.456;2023-07-28T02:22:24;26.20;;;24.00;;
9496;SDS011;4786;51.270;4.456;2023-07-28T02:24:50;24.63;;;22.33;;
9496;SDS011;4786;51.270;4.456;2023-07-28T02:27:16;22.95;;;20.83;;
9496;SDS011;4786;51.270;4.456;2023-07-28T02:29:42;22.70;;;20.67;;
9496;SDS011;4786;51.270;4.456;2023-07-28T02:32:08;21.52;;;19.40;;
9496;SDS011;4786;51.270;4.456;2023-07-28T02:34:34;20.05;;;18.10;;
9496;SDS011;4786;51.270;4.456;2023-07-28T02:37:00;19.10;;;17.27;;
9496;SDS011;4786;51.270;4.456;2023-07-28T02:39:27;17.33;;;15.60;;
9496;SDS011;4786;51.270;4.456;2023-07-28T02:41:53;15.07;;;13.57;;
9496;SDS011;4786;51.270;4.456;2023-07-28T02:44:20;14.05;;;12.85;;
9496;SDS011;4786;51.270;4.456;2023-07-28T02:46:46;14.15;;;12.88;;
9496;SDS011;4786;51.270;4.456;2023-07-28T02:49:11;13.40;;;12.15;;
9496;SDS011;4786;51.270;4.456;2023-07-28T02:51:37;12.80;;;11.48;;
9496;SDS011;4786;51.270;4.456;2023-07-28T02:54:04;11.95;;;10.70;;
9496;SDS011;4786;51.270;4.456;2023-07-28T02:56:30;14.10;;;12.75;;
9496;SDS011;4786;51.270;4.456;2023-07-28T02:58:59;11.32;;;10.23;;
9496;SDS011;4786;51.270;4.456;2023-07-28T03:01:26;12.75;;;9.85;;
9496;SDS011;4786;51.270;4.456;2023-07-28T03:03:55;10.48;;;9.57;;
9496;SDS011;4786;51.270;4.456;2023-07-28T03:06:21;11.47;;;10.37;;
9496;SDS011;4786;51.270;4.456;2023-07-28T03:08:46;11.88;;;10.38;;
9496;SDS011;4786;51.270;4.456;2023-07-28T03:11:12;11.68;;;10.48;;
9496;SDS011;4786;51.270;4.456;2023-07-28T03:13:38;11.75;;;9.82;;
9496;SDS011;4786;51.270;4.456;2023-07-28T03:16:04;11.60;;;10.50;;
9496;SDS011;4786;51.270;4.456;2023-07-28T03:18:29;13.77;;;10.88;;
9496;SDS011;4786;51.270;4.456;2023-07-28T03:20:55;10.82;;;9.75;;
9496;SDS011;4786;51.270;4.456;2023-07-28T03:23:22;9.90;;;9.00;;
9496;SDS011;4786;51.270;4.456;2023-07-28T03:25:47;9.90;;;8.93;;
9496;SDS011;4786;51.270;4.456;2023-07-28T03:28:13;9.88;;;7.95;;
9496;SDS011;4786;51.270;4.456;2023-07-28T03:30:39;8.25;;;7.45;;
9496;SDS011;4786;51.270;4.456;2023-07-28T03:33:05;9.77;;;8.02;;
9496;SDS011;4786;51.270;4.456;2023-07-28T03:35:31;10.25;;;8.40;;
9496;SDS011;4786;51.270;4.456;2023-07-28T03:37:57;10.50;;;8.18;;
9496;SDS011;4786;51.270;4.456;2023-07-28T03:40:27;8.73;;;7.30;;
9496;SDS011;4786;51.270;4.456;2023-07-28T03:42:53;7.20;;;6.60;;
9496;SDS011;4786;51.270;4.456;2023-07-28T03:45:19;7.43;;;6.70;;
9496;SDS011;4786;51.270;4.456;2023-07-28T03:47:45;7.97;;;7.18;;
9496;SDS011;4786;51.270;4.456;2023-07-28T03:50:11;9.02;;;6.80;;
9496;SDS011;4786;51.270;4.456;2023-07-28T03:52:40;7.57;;;5.93;;
9496;SDS011;4786;51.270;4.456;2023-07-28T03:55:07;7.75;;;6.72;;
9496;SDS011;4786;51.270;4.456;2023-07-28T03:57:33;6.65;;;6.05;;
9496;SDS011;4786;51.270;4.456;2023-07-28T03:59:59;6.03;;;5.38;;
9496;SDS011;4786;51.270;4.456;2023-07-28T04:02:25;6.32;;;5.72;;
9496;SDS011;4786;51.270;4.456;2023-07-28T04:04:55;11.52;;;6.00;;
9496;SDS011;4786;51.270;4.456;2023-07-28T04:07:22;6.18;;;5.20;;
9496;SDS011;4786;51.270;4.456;2023-07-28T04:09:48;6.07;;;5.18;;
9496;SDS011;4786;51.270;4.456;2023-07-28T04:12:14;6.13;;;5.25;;
9496;SDS011;4786;51.270;4.456;2023-07-28T04:14:40;6.72;;;4.97;;
9496;SDS011;4786;51.270;4.456;2023-07-28T04:17:06;5.38;;;4.82;;
9496;SDS011;4786;51.270;4.456;2023-07-28T04:19:32;5.35;;;4.85;;
9496;SDS011;4786;51.270;4.456;2023-07-28T04:21:59;6.72;;;4.97;;
9496;SDS011;4786;51.270;4.456;2023-07-28T04:24:25;5.60;;;5.10;;
9496;SDS011;4786;51.270;4.456;2023-07-28T04:26:52;5.90;;;5.10;;
9496;SDS011;4786;51.270;4.456;2023-07-28T04:29:18;5.20;;;4.20;;
9496;SDS011;4786;51.270;4.456;2023-07-28T04:31:44;6.72;;;5.00;;
9496;SDS011;4786;51.270;4.456;2023-07-28T04:34:10;4.90;;;4.50;;
9496;SDS011;4786;51.270;4.456;2023-07-28T04:36:36;4.47;;;4.07;;
9496;SDS011;4786;51.270;4.456;2023-07-28T04:39:02;6.00;;;4.10;;
9496;SDS011;4786;51.270;4.456;2023-07-28T04:41:29;4.85;;;4.20;;
9496;SDS011;4786;51.270;4.456;2023-07-28T04:43:55;6.22;;;4.90;;
9496;SDS011;4786;51.270;4.456;2023-07-28T04:46:22;5.78;;;4.15;;
9496;SDS011;4786;51.270;4.456;2023-07-28T04:48:47;6.35;;;4.18;;
9496;SDS011;4786;51.270;4.456;2023-07-28T04:51:13;4.57;;;3.97;;
9496;SDS011;4786;51.270;4.456;2023-07-28T04:53:38;5.25;;;3.95;;
9496;SDS011;4786;51.270;4.456;2023-07-28T04:56:04;4.65;;;4.03;;
9496;SDS011;4786;51.270;4.456;2023-07-28T04:58:30;7.03;;;4.25;;
9496;SDS011;4786;51.270;4.456;2023-07-28T05:00:57;4.72;;;4.15;;
9496;SDS011;4786;51.270;4.456;2023-07-28T05:03:23;4.63;;;3.90;;
9496;SDS011;4786;51.270;4.456;2023-07-28T05:05:49;4.55;;;3.83;;
9496;SDS011;4786;51.270;4.456;2023-07-28T05:08:15;3.88;;;3.58;;
9496;SDS011;4786;51.270;4.456;2023-07-28T05:10:41;3.90;;;3.60;;
9496;SDS011;4786;51.270;4.456;2023-07-28T05:13:10;4.82;;;3.42;;
9496;SDS011;4786;51.270;4.456;2023-07-28T05:15:36;4.90;;;3.50;;
9496;SDS011;4786;51.270;4.456;2023-07-28T05:18:02;4.40;;;3.88;;
9496;SDS011;4786;51.270;4.456;2023-07-28T05:20:28;4.00;;;3.38;;
9496;SDS011;4786;51.270;4.456;2023-07-28T05:22:54;4.85;;;3.47;;
9496;SDS011;4786;51.270;4.456;2023-07-28T05:25:21;4.03;;;3.20;;
9496;SDS011;4786;51.270;4.456;2023-07-28T05:27:47;3.90;;;3.20;;
9496;SDS011;4786;51.270;4.456;2023-07-28T05:30:13;3.58;;;3.28;;
9496;SDS011;4786;51.270;4.456;2023-07-28T05:32:39;3.55;;;3.20;;
9496;SDS011;4786;51.270;4.456;2023-07-28T05:35:05;4.07;;;2.92;;
9496;SDS011;4786;51.270;4.456;2023-07-28T05:37:32;4.57;;;3.10;;
9496;SDS011;4786;51.270;4.456;2023-07-28T05:39:57;4.55;;;2.70;;
9496;SDS011;4786;51.270;4.456;2023-07-28T05:42:23;3.20;;;2.90;;
9496;SDS011;4786;51.270;4.456;2023-07-28T05:44:49;2.70;;;2.50;;
9496;SDS011;4786;51.270;4.456;2023-07-28T05:47:17;4.15;;;3.10;;
9496;SDS011;4786;51.270;4.456;2023-07-28T05:49:43;3.55;;;2.90;;
9496;SDS011;4786;51.270;4.456;2023-07-28T05:52:10;3.28;;;2.97;;
9496;SDS011;4786;51.270;4.456;2023-07-28T05:54:36;3.40;;;3.10;;
9496;SDS011;4786;51.270;4.456;2023-07-28T05:57:02;3.45;;;2.40;;
9496;SDS011;4786;51.270;4.456;2023-07-28T05:59:28;4.57;;;2.75;;
9496;SDS011;4786;51.270;4.456;2023-07-28T06:01:54;3.15;;;2.95;;
9496;SDS011;4786;51.270;4.456;2023-07-28T06:04:20;3.40;;;3.10;;
9496;SDS011;4786;51.270;4.456;2023-07-28T06:06:46;3.20;;;2.90;;
9496;SDS011;4786;51.270;4.456;2023-07-28T06:09:12;4.80;;;2.90;;
9496;SDS011;4786;51.270;4.456;2023-07-28T06:11:38;3.33;;;3.13;;
9496;SDS011;4786;51.270;4.456;2023-07-28T06:14:04;3.50;;;2.70;;
9496;SDS011;4786;51.270;4.456;2023-07-28T06:16:30;3.30;;;3.00;;
9496;SDS011;4786;51.270;4.456;2023-07-28T06:18:56;4.30;;;3.20;;
9496;SDS011;4786;51.270;4.456;2023-07-28T06:21:22;3.42;;;2.83;;
9496;SDS011;4786;51.270;4.456;2023-07-28T06:23:47;3.20;;;2.90;;
9496;SDS011;4786;51.270;4.456;2023-07-28T06:26:13;3.58;;;3.20;;
9496;SDS011;4786;51.270;4.456;2023-07-28T06:28:39;3.10;;;2.90;;
9496;SDS011;4786;51.270;4.456;2023-07-28T06:31:05;2.97;;;2.78;;
9496;SDS011;4786;51.270;4.456;2023-07-28T06:33:31;4.13;;;3.42;;
9496;SDS011;4786;51.270;4.456;2023-07-28T06:35:57;3.88;;;2.90;;
9496;SDS011;4786;51.270;4.456;2023-07-28T06:38:23;3.42;;;3.13;;
9496;SDS011;4786;51.270;4.456;2023-07-28T06:40:50;4.68;;;3.13;;
9496;SDS011;4786;51.270;4.456;2023-07-28T06:43:16;3.47;;;3.20;;
9496;SDS011;4786;51.270;4.456;2023-07-28T06:45:44;3.20;;;3.00;;
9496;SDS011;4786;51.270;4.456;2023-07-28T06:48:10;3.97;;;3.55;;
9496;SDS011;4786;51.270;4.456;2023-07-28T06:50:36;4.05;;;3.65;;
9496;SDS011;4786;51.270;4.456;2023-07-28T06:53:02;3.63;;;3.33;;
9496;SDS011;4786;51.270;4.456;2023-07-28T06:55:28;4.75;;;3.25;;
9496;SDS011;4786;51.270;4.456;2023-07-28T06:57:55;3.17;;;2.85;;
9496;SDS011;4786;51.270;4.456;2023-07-28T07:00:21;3.22;;;2.92;;
9496;SDS011;4786;51.270;4.456;2023-07-28T07:02:48;3.00;;;2.80;;
9496;SDS011;4786;51.270;4.456;2023-07-28T07:05:14;2.85;;;2.60;;
9496;SDS011;4786;51.270;4.456;2023-07-28T07:07:40;3.20;;;2.92;;
9496;SDS011;4786;51.270;4.456;2023-07-28T07:10:06;2.80;;;2.60;;
9496;SDS011;4786;51.270;4.456;2023-07-28T07:12:33;2.70;;;2.50;;
9496;SDS011;4786;51.270;4.456;2023-07-28T07:14:58;2.90;;;2.63;;
9496;SDS011;4786;51.270;4.456;2023-07-28T07:17:25;2.85;;;2.47;;
9496;SDS011;4786;51.270;4.456;2023-07-28T07:19:51;3.88;;;2.58;;
9496;SDS011;4786;51.270;4.456;2023-07-28T07:22:16;3.90;;;2.70;;
9496;SDS011;4786;51.270;4.456;2023-07-28T07:24:43;3.35;;;2.10;;
9496;SDS011;4786;51.270;4.456;2023-07-28T07:27:08;2.95;;;2.65;;
9496;SDS011;4786;51.270;4.456;2023-07-28T07:29:36;5.40;;;2.20;;
9496;SDS011;4786;51.270;4.456;2023-07-28T07:32:04;2.95;;;2.22;;
9496;SDS011;4786;51.270;4.456;2023-07-28T07:34:31;2.60;;;2.40;;
9496;SDS011;4786;51.270;4.456;2023-07-28T07:36:58;5.68;;;2.60;;
9496;SDS011;4786;51.270;4.456;2023-07-28T07:39:24;3.42;;;2.95;;
9496;SDS011;4786;51.270;4.456;2023-07-28T07:41:50;7.00;;;2.75;;
9496;SDS011;4786;51.270;4.456;2023-07-28T07:44:16;4.53;;;2.30;;
9496;SDS011;4786;51.270;4.456;2023-07-28T07:46:42;3.33;;;2.72;;
9496;SDS011;4786;51.270;4.456;2023-07-28T07:49:08;2.67;;;2.47;;
9496;SDS011;4786;51.270;4.456;2023-07-28T07:51:34;2.40;;;2.10;;
9496;SDS011;4786;51.270;4.456;2023-07-28T07:54:00;3.17;;;2.15;;
9496;SDS011;4786;51.270;4.456;2023-07-28T07:56:28;4.95;;;2.17;;
9496;SDS011;4786;51.270;4.456;2023-07-28T07:58:55;2.38;;;2.22;;
9496;SDS011;4786;51.270;4.456;2023-07-28T08:01:21;3.22;;;2.08;;
9496;SDS011;4786;51.270;4.456;2023-07-28T08:03:47;1.90;;;1.67;;
9496;SDS011;4786;51.270;4.456;2023-07-28T08:06:12;1.90;;;1.80;;
9496;SDS011;4786;51.270;4.456;2023-07-28T08:08:39;5.63;;;1.90;;
9496;SDS011;4786;51.270;4.456;2023-07-28T08:11:05;2.55;;;1.88;;
9496;SDS011;4786;51.270;4.456;2023-07-28T08:13:32;1.98;;;1.75;;
9496;SDS011;4786;51.270;4.456;2023-07-28T08:15:58;9.60;;;1.90;;
9496;SDS011;4786;51.270;4.456;2023-07-28T08:18:24;4.30;;;1.90;;
9496;SDS011;4786;51.270;4.456;2023-07-28T08:20:50;4.30;;;1.90;;
9496;SDS011;4786;51.270;4.456;2023-07-28T08:23:16;1.77;;;1.67;;
9496;SDS011;4786;51.270;4.456;2023-07-28T08:25:42;1.85;;;1.70;;
9496;SDS011;4786;51.270;4.456;2023-07-28T08:28:07;2.35;;;1.73;;
9496;SDS011;4786;51.270;4.456;2023-07-28T08:30:34;2.13;;;1.70;;
9496;SDS011;4786;51.270;4.456;2023-07-28T08:33:00;1.95;;;1.73;;
9496;SDS011;4786;51.270;4.456;2023-07-28T08:35:27;2.08;;;1.65;;
9496;SDS011;4786;51.270;4.456;2023-07-28T08:37:53;2.58;;;1.77;;
9496;SDS011;4786;51.270;4.456;2023-07-28T08:40:19;2.17;;;1.70;;
9496;SDS011;4786;51.270;4.456;2023-07-28T08:42:44;2.38;;;1.95;;
9496;SDS011;4786;51.270;4.456;2023-07-28T08:45:10;3.38;;;1.70;;
9496;SDS011;4786;51.270;4.456;2023-07-28T08:47:38;1.85;;;1.75;;
9496;SDS011;4786;51.270;4.456;2023-07-28T08:50:04;3.40;;;1.90;;
9496;SDS011;4786;51.270;4.456;2023-07-28T08:52:31;3.08;;;1.90;;
9496;SDS011;4786;51.270;4.456;2023-07-28T08:54:57;2.88;;;2.10;;
9496;SDS011;4786;51.270;4.456;2023-07-28T08:57:23;2.55;;;2.25;;
9496;SDS011;4786;51.270;4.456;2023-07-28T08:59:49;3.13;;;2.17;;
9496;SDS011;4786;51.270;4.456;2023-07-28T09:02:16;2.22;;;2.03;;
9496;SDS011;4786;51.270;4.456;2023-07-28T09:04:43;2.80;;;2.50;;
9496;SDS011;4786;51.270;4.456;2023-07-28T09:07:10;2.50;;;2.30;;
9496;SDS011;4786;51.270;4.456;2023-07-28T09:09:36;4.53;;;2.72;;
9496;SDS011;4786;51.270;4.456;2023-07-28T09:12:02;4.18;;;2.10;;
9496;SDS011;4786;51.270;4.456;2023-07-28T09:14:29;2.97;;;2.30;;
9496;SDS011;4786;51.270;4.456;2023-07-28T09:16:55;3.17;;;2.30;;
9496;SDS011;4786;51.270;4.456;2023-07-28T09:19:21;3.90;;;2.17;;
9496;SDS011;4786;51.270;4.456;2023-07-28T09:21:56;3.17;;;2.03;;
9496;SDS011;4786;51.270;4.456;2023-07-28T09:24:28;3.63;;;2.28;;
9496;SDS011;4786;51.270;4.456;2023-07-28T09:26:59;2.75;;;2.30;;
9496;SDS011;4786;51.270;4.456;2023-07-28T09:29:26;4.05;;;2.50;;
9496;SDS011;4786;51.270;4.456;2023-07-28T09:32:05;3.42;;;2.40;;
9496;SDS011;4786;51.270;4.456;2023-07-28T09:34:32;3.78;;;2.40;;
9496;SDS011;4786;51.270;4.456;2023-07-28T09:36:58;2.45;;;2.17;;
9496;SDS011;4786;51.270;4.456;2023-07-28T09:39:25;3.65;;;2.45;;
9496;SDS011;4786;51.270;4.456;2023-07-28T09:41:51;3.63;;;2.10;;
9496;SDS011;4786;51.270;4.456;2023-07-28T09:44:18;3.60;;;2.40;;
9496;SDS011;4786;51.270;4.456;2023-07-28T09:46:54;2.78;;;2.55;;
9496;SDS011;4786;51.270;4.456;2023-07-28T09:49:24;9.30;;;2.25;;
9496;SDS011;4786;51.270;4.456;2023-07-28T09:51:54;3.15;;;2.10;;
9496;SDS011;4786;51.270;4.456;2023-07-28T09:54:25;2.45;;;2.25;;
9496;SDS011;4786;51.270;4.456;2023-07-28T09:56:55;2.33;;;2.13;;
9496;SDS011;4786;51.270;4.456;2023-07-28T09:59:28;2.47;;;2.08;;
9496;SDS011;4786;51.270;4.456;2023-07-28T10:01:58;4.68;;;2.30;;
9496;SDS011;4786;51.270;4.456;2023-07-28T10:04:24;2.10;;;1.90;;
9496;SDS011;4786;51.270;4.456;2023-07-28T10:06:51;2.53;;;2.33;;
9496;SDS011;4786;51.270;4.456;2023-07-28T10:09:24;2.72;;;1.77;;
9496;SDS011;4786;51.270;4.456;2023-07-28T10:11:52;2.92;;;1.85;;
9496;SDS011;4786;51.270;4.456;2023-07-28T10:16:54;4.03;;;1.70;;
9496;SDS011;4786;51.270;4.456;2023-07-28T10:19:20;4.38;;;2.00;;
9496;SDS011;4786;51.270;4.456;2023-07-28T10:21:46;3.20;;;1.92;;
9496;SDS011;4786;51.270;4.456;2023-07-28T10:24:12;5.28;;;2.15;;
9496;SDS011;4786;51.270;4.456;2023-07-28T10:26:40;2.28;;;1.90;;
9496;SDS011;4786;51.270;4.456;2023-07-28T10:29:16;2.95;;;2.10;;
9496;SDS011;4786;51.270;4.456;2023-07-28T10:34:18;3.63;;;1.95;;
9496;SDS011;4786;51.270;4.456;2023-07-28T10:36:44;3.30;;;2.00;;
9496;SDS011;4786;51.270;4.456;2023-07-28T10:39:16;2.17;;;1.98;;
9496;SDS011;4786;51.270;4.456;2023-07-28T10:44:31;2.88;;;2.20;;
9496;SDS011;4786;51.270;4.456;2023-07-28T10:46:58;1.88;;;1.77;;
9496;SDS011;4786;51.270;4.456;2023-07-28T10:49:24;2.25;;;1.95;;
9496;SDS011;4786;51.270;4.456;2023-07-28T10:51:51;2.33;;;1.95;;
9496;SDS011;4786;51.270;4.456;2023-07-28T10:54:16;4.25;;;2.17;;
9496;SDS011;4786;51.270;4.456;2023-07-28T10:56:45;2.33;;;2.08;;
9496;SDS011;4786;51.270;4.456;2023-07-28T10:59:11;3.25;;;2.17;;
9496;SDS011;4786;51.270;4.456;2023-07-28T11:01:39;3.35;;;2.50;;
9496;SDS011;4786;51.270;4.456;2023-07-28T11:04:16;8.77;;;2.40;;
9496;SDS011;4786;51.270;4.456;2023-07-28T11:06:46;3.97;;;2.70;;
9496;SDS011;4786;51.270;4.456;2023-07-28T11:09:13;4.85;;;2.78;;
9496;SDS011;4786;51.270;4.456;2023-07-28T11:11:41;3.63;;;2.58;;
9496;SDS011;4786;51.270;4.456;2023-07-28T11:14:08;5.00;;;2.90;;
9496;SDS011;4786;51.270;4.456;2023-07-28T11:16:35;5.60;;;3.00;;
9496;SDS011;4786;51.270;4.456;2023-07-28T11:19:03;3.35;;;2.88;;
9496;SDS011;4786;51.270;4.456;2023-07-28T11:21:38;5.65;;;2.30;;
9496;SDS011;4786;51.270;4.456;2023-07-28T11:24:08;5.13;;;2.25;;
9496;SDS011;4786;51.270;4.456;2023-07-28T11:26:36;3.45;;;2.30;;
9496;SDS011;4786;51.270;4.456;2023-07-28T11:29:02;2.90;;;2.40;;
9496;SDS011;4786;51.270;4.456;2023-07-28T11:31:30;3.67;;;2.80;;
9496;SDS011;4786;51.270;4.456;2023-07-28T11:33:56;3.90;;;2.72;;
9496;SDS011;4786;51.270;4.456;2023-07-28T11:36:23;2.50;;;2.30;;
9496;SDS011;4786;51.270;4.456;2023-07-28T11:38:53;5.13;;;2.22;;
9496;SDS011;4786;51.270;4.456;2023-07-28T11:41:20;6.18;;;2.60;;
9496;SDS011;4786;51.270;4.456;2023-07-28T11:43:48;4.07;;;2.60;;
9496;SDS011;4786;51.270;4.456;2023-07-28T11:49:16;3.35;;;2.00;;
9496;SDS011;4786;51.270;4.456;2023-07-28T11:51:47;2.67;;;2.13;;
9496;SDS011;4786;51.270;4.456;2023-07-28T11:54:15;5.40;;;2.08;;
9496;SDS011;4786;51.270;4.456;2023-07-28T11:56:43;3.28;;;2.10;;
9496;SDS011;4786;51.270;4.456;2023-07-28T11:59:10;6.63;;;2.20;;
9496;SDS011;4786;51.270;4.456;2023-07-28T12:01:58;3.50;;;1.90;;
9496;SDS011;4786;51.270;4.456;2023-07-28T12:04:25;2.88;;;2.00;;
9496;SDS011;4786;51.270;4.456;2023-07-28T12:09:32;2.83;;;1.60;;
9496;SDS011;4786;51.270;4.456;2023-07-28T12:12:18;2.70;;;2.13;;
9496;SDS011;4786;51.270;4.456;2023-07-28T12:14:46;4.65;;;2.20;;
9496;SDS011;4786;51.270;4.456;2023-07-28T12:17:12;3.20;;;2.10;;
9496;SDS011;4786;51.270;4.456;2023-07-28T12:22:24;1.85;;;1.65;;
9496;SDS011;4786;51.270;4.456;2023-07-28T12:24:58;2.10;;;1.80;;
9496;SDS011;4786;51.270;4.456;2023-07-28T12:27:24;2.20;;;1.80;;
9496;SDS011;4786;51.270;4.456;2023-07-28T12:29:51;1.92;;;1.60;;
9496;SDS011;4786;51.270;4.456;2023-07-28T12:32:17;1.98;;;1.70;;
9496;SDS011;4786;51.270;4.456;2023-07-28T12:34:43;2.40;;;1.70;;
9496;SDS011;4786;51.270;4.456;2023-07-28T12:37:09;2.03;;;1.70;;
9496;SDS011;4786;51.270;4.456;2023-07-28T12:39:36;2.58;;;1.95;;
9496;SDS011;4786;51.270;4.456;2023-07-28T12:42:06;2.95;;;1.63;;
9496;SDS011;4786;51.270;4.456;2023-07-28T12:44:34;2.45;;;1.60;;
9496;SDS011;4786;51.270;4.456;2023-07-28T12:47:01;2.28;;;1.60;;
9496;SDS011;4786;51.270;4.456;2023-07-28T12:49:27;2.08;;;1.80;;
9496;SDS011;4786;51.270;4.456;2023-07-28T12:51:57;2.15;;;1.63;;
9496;SDS011;4786;51.270;4.456;2023-07-28T12:54:24;1.75;;;1.55;;
9496;SDS011;4786;51.270;4.456;2023-07-28T12:56:51;1.63;;;1.50;;
9496;SDS011;4786;51.270;4.456;2023-07-28T12:59:21;1.50;;;1.40;;
9496;SDS011;4786;51.270;4.456;2023-07-28T13:01:47;1.98;;;1.50;;
9496;SDS011;4786;51.270;4.456;2023-07-28T13:04:13;1.52;;;1.40;;
9496;SDS011;4786;51.270;4.456;2023-07-28T13:06:39;1.73;;;1.38;;
9496;SDS011;4786;51.270;4.456;2023-07-28T13:09:06;1.45;;;1.23;;
9496;SDS011;4786;51.270;4.456;2023-07-28T13:11:33;1.80;;;1.70;;
9496;SDS011;4786;51.270;4.456;2023-07-28T13:13:59;2.35;;;1.70;;
9496;SDS011;4786;51.270;4.456;2023-07-28T13:16:25;3.38;;;1.55;;
9496;SDS011;4786;51.270;4.456;2023-07-28T13:18:52;1.48;;;1.38;;
9496;SDS011;4786;51.270;4.456;2023-07-28T13:21:17;1.95;;;1.75;;
9496;SDS011;4786;51.270;4.456;2023-07-28T13:23:44;3.65;;;1.80;;
9496;SDS011;4786;51.270;4.456;2023-07-28T13:26:09;2.58;;;1.60;;
9496;SDS011;4786;51.270;4.456;2023-07-28T13:28:35;3.38;;;1.85;;
9496;SDS011;4786;51.270;4.456;2023-07-28T13:31:02;2.20;;;1.40;;
9496;SDS011;4786;51.270;4.456;2023-07-28T13:33:28;2.28;;;1.58;;
9496;SDS011;4786;51.270;4.456;2023-07-28T13:35:55;2.05;;;1.50;;
9496;SDS011;4786;51.270;4.456;2023-07-28T13:38:21;1.48;;;1.38;;
9496;SDS011;4786;51.270;4.456;2023-07-28T13:40:47;1.45;;;1.33;;
9496;SDS011;4786;51.270;4.456;2023-07-28T13:43:13;4.40;;;1.83;;
9496;SDS011;4786;51.270;4.456;2023-07-28T13:45:39;5.35;;;1.73;;
9496;SDS011;4786;51.270;4.456;2023-07-28T13:48:05;5.60;;;1.58;;
9496;SDS011;4786;51.270;4.456;2023-07-28T13:50:30;3.72;;;1.48;;
9496;SDS011;4786;51.270;4.456;2023-07-28T13:52:56;6.00;;;1.67;;
9496;SDS011;4786;51.270;4.456;2023-07-28T13:55:22;1.83;;;1.42;;
9496;SDS011;4786;51.270;4.456;2023-07-28T13:57:48;2.38;;;1.52;;
9496;SDS011;4786;51.270;4.456;2023-07-28T14:00:14;2.20;;;1.58;;
9496;SDS011;4786;51.270;4.456;2023-07-28T14:02:40;3.08;;;1.60;;
9496;SDS011;4786;51.270;4.456;2023-07-28T14:05:07;1.30;;;1.20;;
9496;SDS011;4786;51.270;4.456;2023-07-28T14:07:33;3.25;;;1.30;;
9496;SDS011;4786;51.270;4.456;2023-07-28T14:10:00;4.80;;;1.50;;
9496;SDS011;4786;51.270;4.456;2023-07-28T14:12:27;1.55;;;1.40;;
9496;SDS011;4786;51.270;4.456;2023-07-28T14:14:52;1.50;;;1.40;;
9496;SDS011;4786;51.270;4.456;2023-07-28T14:17:18;5.60;;;1.60;;
9496;SDS011;4786;51.270;4.456;2023-07-28T14:19:44;4.47;;;1.70;;
9496;SDS011;4786;51.270;4.456;2023-07-28T14:22:12;2.25;;;1.40;;
9496;SDS011;4786;51.270;4.456;2023-07-28T14:24:37;2.00;;;1.33;;
9496;SDS011;4786;51.270;4.456;2023-07-28T14:27:04;2.80;;;1.58;;
9496;SDS011;4786;51.270;4.456;2023-07-28T14:29:30;1.63;;;1.50;;
9496;SDS011;4786;51.270;4.456;2023-07-28T14:31:56;1.75;;;1.60;;
9496;SDS011;4786;51.270;4.456;2023-07-28T14:34:22;1.85;;;1.50;;
9496;SDS011;4786;51.270;4.456;2023-07-28T14:36:48;3.33;;;1.48;;
9496;SDS011;4786;51.270;4.456;2023-07-28T14:39:15;3.53;;;1.90;;
9496;SDS011;4786;51.270;4.456;2023-07-28T14:41:41;2.58;;;1.60;;
9496;SDS011;4786;51.270;4.456;2023-07-28T14:44:07;2.28;;;1.55;;
9496;SDS011;4786;51.270;4.456;2023-07-28T14:46:33;2.88;;;1.58;;
9496;SDS011;4786;51.270;4.456;2023-07-28T14:48:59;1.65;;;1.55;;
9496;SDS011;4786;51.270;4.456;2023-07-28T14:51:25;2.30;;;1.60;;
9496;SDS011;4786;51.270;4.456;2023-07-28T14:53:51;3.58;;;1.77;;
9496;SDS011;4786;51.270;4.456;2023-07-28T14:56:18;1.63;;;1.48;;
9496;SDS011;4786;51.270;4.456;2023-07-28T14:58:45;1.80;;;1.63;;
9496;SDS011;4786;51.270;4.456;2023-07-28T15:01:12;1.50;;;1.40;;
9496;SDS011;4786;51.270;4.456;2023-07-28T15:03:38;2.60;;;1.77;;
9496;SDS011;4786;51.270;4.456;2023-07-28T15:06:04;3.10;;;1.90;;
9496;SDS011;4786;51.270;4.456;2023-07-28T15:08:30;1.88;;;1.60;;
9496;SDS011;4786;51.270;4.456;2023-07-28T15:10:56;1.80;;;1.70;;
9496;SDS011;4786;51.270;4.456;2023-07-28T15:13:23;2.50;;;1.90;;
9496;SDS011;4786;51.270;4.456;2023-07-28T15:15:49;1.90;;;1.77;;
9496;SDS011;4786;51.270;4.456;2023-07-28T15:18:15;4.25;;;1.75;;
9496;SDS011;4786;51.270;4.456;2023-07-28T15:20:42;2.60;;;1.80;;
9496;SDS011;4786;51.270;4.456;2023-07-28T15:23:08;2.35;;;1.75;;
9496;SDS011;4786;51.270;4.456;2023-07-28T15:25:35;1.92;;;1.80;;
9496;SDS011;4786;51.270;4.456;2023-07-28T15:28:02;2.10;;;1.90;;
9496;SDS011;4786;51.270;4.456;2023-07-28T15:30:29;2.03;;;1.80;;
9496;SDS011;4786;51.270;4.456;2023-07-28T15:32:55;2.53;;;1.70;;